Portada
METAR-TAF:

METAR-TAF

Aeroports :

Sakon Nakhon, Tailàndia

latitud: 17-11-42N, longitud: 104-07-08E, altitud: 161 m

Observació

L'informe es va fer fa 6 hores i 42 minuts, a les 15:00 UTC
Vent 4 kt del Sud-Est, variant entre Est/Sud-Est i Sud
Temperatura 20°C
Humitat 68%
Pressió 1017 hPa
Visibilitat: 9000 m

METAR: VTUI 111500Z 14004KT 110V170 9000 NSC 20/14 Q1017 NOSIG

Hora: 04:42 (21:42 UTC)

Pronòstic

L'informe es va fer fa 4 hores i 42 minuts, a les 17:00 UTC
Pronòstic vàlid del 11 a les 18 UTC al 12 a les 18 UTC
Vent 8 kt del Est
Visibilitat: 7000 m
Escasses núvols a una alçada de 4000 ft

TAF: VTUI 111700Z 1118/1218 09008KT 7000 FEW040

Observacions i pronòstics meteorològics de més de 4000 aeroports (METAR i TAF).

Les estacions disponibles són els punts grocs i vermells al mapa.

Posi el ratolí al punt desitjat per veure el nom de l'estació.

Feu clic per veure les observacions i els pronòstics meteorològics.

Per canviar el mapa: feu clic els botons verds amb una creu de color negre per apropar; al botó verd amb un guió per allunyar la imatge; o en les fletxes verdes per a mapes adjacents.


METAR-TAF: